createdAt,value
2019-02-25T00:03:16.841Z,-4.28
2019-02-25T00:08:23.633Z,-4.60
2019-02-25T00:13:28.888Z,-4.21
2019-02-25T00:18:33.542Z,-5.57
2019-02-25T00:23:38.478Z,-5.21
2019-02-25T00:28:43.220Z,-5.11
2019-02-25T00:33:47.960Z,-4.36
2019-02-25T00:38:52.705Z,-4.84
2019-02-25T00:43:57.353Z,-4.73
2019-02-25T00:49:01.978Z,-4.96
2019-02-25T00:54:06.723Z,-5.25
2019-02-25T00:59:11.468Z,-5.05
2019-02-25T01:04:16.078Z,-5.03
2019-02-25T01:09:20.851Z,-5.48
2019-02-25T01:14:25.615Z,-5.52
2019-02-25T01:19:30.353Z,-5.97
2019-02-25T01:24:35.963Z,-5.51
2019-02-25T01:29:40.740Z,-5.63
2019-02-25T01:34:45.485Z,-5.17
2019-02-25T01:39:51.090Z,-5.94
2019-02-25T01:44:55.886Z,-5.39
2019-02-25T01:50:00.637Z,-4.98
2019-02-25T01:55:07.111Z,-5.84
2019-02-25T02:00:15.031Z,-5.14
2019-02-25T02:05:19.763Z,-5.38
2019-02-25T02:10:24.444Z,-5.62
2019-02-25T02:15:30.140Z,-5.10
2019-02-25T02:20:35.587Z,-5.48
2019-02-25T02:25:43.144Z,-5.14
2019-02-25T02:30:47.786Z,-5.49
2019-02-25T02:35:52.435Z,-5.24
2019-02-25T02:40:58.139Z,-5.74
2019-02-25T02:46:14.912Z,-5.87
2019-02-25T02:51:19.684Z,-5.86
2019-02-25T02:56:24.387Z,-5.97
2019-02-25T03:01:29.146Z,-5.70
2019-02-25T03:06:33.781Z,-5.92
2019-02-25T03:11:38.522Z,-5.60
2019-02-25T03:16:43.259Z,-6.79
2019-02-25T03:21:49.610Z,-6.87
2019-02-25T03:26:54.190Z,-6.45
2019-02-25T03:31:59.025Z,-6.40
2019-02-25T03:37:03.673Z,-5.76
2019-02-25T03:42:08.404Z,-6.40
2019-02-25T03:47:14.371Z,-6.19
2019-02-25T03:52:19.220Z,-6.26
2019-02-25T03:57:23.959Z,-5.92
2019-02-25T04:02:28.707Z,-6.23
2019-02-25T04:07:33.353Z,-5.63
2019-02-25T04:12:38.084Z,-6.10
2019-02-25T04:17:44.458Z,-5.97
2019-02-25T04:22:50.705Z,-5.95
2019-02-25T04:27:55.689Z,-5.95
2019-02-25T04:33:01.545Z,-5.81
2019-02-25T04:38:06.403Z,-5.74
2019-02-25T04:43:11.043Z,-5.88
2019-02-25T04:48:15.691Z,-6.32
2019-02-25T04:53:21.447Z,-6.50
2019-02-25T04:58:27.018Z,-6.52
2019-02-25T05:03:31.747Z,-6.22
2019-02-25T05:08:36.597Z,-6.14
2019-02-25T05:13:41.340Z,-6.06
2019-02-25T05:18:47.203Z,-6.09
2019-02-25T05:23:51.967Z,-5.76
2019-02-25T05:28:56.696Z,-6.28
2019-02-25T05:34:01.532Z,-6.30
2019-02-25T05:39:06.870Z,-6.47
2019-02-25T05:44:11.537Z,-6.34
2019-02-25T05:49:16.378Z,-6.38
2019-02-25T05:54:22.354Z,-5.85
2019-02-25T05:59:27.186Z,-6.26
2019-02-25T06:04:31.931Z,-5.64
2019-02-25T06:09:36.775Z,-4.36
2019-02-25T06:14:41.515Z,-4.01
2019-02-25T06:19:47.203Z,-3.29
2019-02-25T06:24:52.023Z,-1.41
2019-02-25T06:29:56.766Z,-0.38
2019-02-25T06:35:01.418Z,-2.17
2019-02-25T06:40:11.488Z,-0.67
2019-02-25T06:45:25.738Z,-2.07
2019-02-25T06:50:30.483Z,-1.20
2019-02-25T06:55:36.850Z,-1.88
2019-02-25T07:00:41.607Z,-1.67
2019-02-25T07:05:47.986Z,-1.21
2019-02-25T07:10:56.238Z,-2.61
2019-02-25T07:16:06.106Z,-1.83
2019-02-25T07:21:15.203Z,-1.80
2019-02-25T07:26:24.467Z,-2.12
2019-02-25T07:31:30.848Z,-2.90
2019-02-25T07:36:37.275Z,-3.00
2019-02-25T07:41:49.541Z,-3.46
2019-02-25T07:47:01.553Z,-1.93
2019-02-25T07:52:07.740Z,-1.80
2019-02-25T07:57:17.669Z,-2.27
2019-02-25T08:02:30.015Z,-1.09
2019-02-25T08:07:36.361Z,-0.91
2019-02-25T08:12:45.752Z,-0.15
2019-02-25T08:17:52.033Z,-1.00
2019-02-25T08:23:01.070Z,-0.15
2019-02-25T08:28:07.457Z,0.03
2019-02-25T08:33:30.424Z,-0.49
2019-02-25T08:38:55.342Z,-0.55
2019-02-25T08:44:01.828Z,-0.50
2019-02-25T08:49:10.867Z,0.05
2019-02-25T08:54:17.246Z,-0.03
2019-02-25T08:59:21.985Z,-0.63
2019-02-25T09:04:26.725Z,-0.23
2019-02-25T09:09:31.542Z,1.09
2019-02-25T09:14:36.441Z,1.49
2019-02-25T09:19:41.574Z,-0.07
2019-02-25T09:24:46.314Z,0.11
2019-02-25T09:29:51.053Z,0.95
2019-02-25T09:34:55.800Z,0.35
2019-02-25T09:40:00.544Z,1.27
2019-02-25T09:45:13.788Z,2.16
2019-02-25T09:50:20.765Z,2.78
2019-02-25T09:55:25.520Z,2.55
2019-02-25T10:00:30.360Z,2.04
2019-02-25T10:05:36.270Z,2.87
2019-02-25T10:10:41.693Z,1.94
2019-02-25T10:15:46.264Z,2.15
2019-02-25T10:20:51.073Z,2.97
2019-02-25T10:25:55.813Z,2.55
2019-02-25T10:31:00.467Z,3.58
2019-02-25T10:36:05.273Z,2.79
2019-02-25T10:41:09.951Z,2.66
2019-02-25T10:46:15.918Z,3.77
2019-02-25T10:51:21.067Z,3.14
2019-02-25T10:56:34.847Z,4.47
2019-02-25T11:01:41.279Z,4.31
2019-02-25T11:06:46.663Z,4.94
2019-02-25T11:11:52.775Z,4.91
2019-02-25T11:16:57.779Z,4.81
2019-02-25T11:22:02.628Z,4.84
2019-02-25T11:27:07.436Z,5.00
2019-02-25T11:32:12.207Z,4.53
2019-02-25T11:37:19.124Z,3.32
2019-02-25T11:42:23.138Z,2.58
2019-02-25T11:47:28.818Z,4.49
2019-02-25T11:52:33.537Z,4.99
2019-02-25T11:57:39.137Z,4.81
2019-02-25T12:02:43.953Z,4.84
2019-02-25T12:07:48.590Z,5.25
2019-02-25T12:12:53.480Z,5.49
2019-02-25T12:17:58.627Z,5.58
2019-02-25T12:23:03.297Z,5.16
2019-02-25T12:28:07.967Z,5.63
2019-02-25T12:33:17.727Z,5.57
2019-02-25T12:38:23.493Z,5.76
2019-02-25T12:43:28.135Z,4.46
2019-02-25T12:48:34.073Z,4.43
2019-02-25T12:53:38.671Z,5.73
2019-02-25T12:58:43.410Z,5.74
2019-02-25T13:03:48.027Z,5.47
2019-02-25T13:08:52.768Z,5.57
2019-02-25T13:13:57.513Z,5.91
2019-02-25T13:19:02.254Z,5.95
2019-02-25T13:24:07.501Z,6.30
2019-02-25T13:29:13.377Z,5.51
2019-02-25T13:34:18.120Z,5.79
2019-02-25T13:39:22.860Z,6.26
2019-02-25T13:44:27.611Z,6.26
2019-02-25T13:49:32.351Z,5.14
2019-02-25T13:54:37.117Z,5.77
2019-02-25T13:59:43.164Z,4.45
2019-02-25T14:04:50.442Z,4.81
2019-02-25T14:09:56.642Z,5.47
2019-02-25T14:15:01.398Z,5.75
2019-02-25T14:20:10.441Z,5.97
2019-02-25T14:25:19.751Z,5.11
2019-02-25T14:30:26.002Z,6.14
2019-02-25T14:35:32.081Z,6.13
2019-02-25T14:40:39.712Z,5.95
2019-02-25T14:45:46.025Z,5.59
2019-02-25T14:50:50.160Z,6.10
2019-02-25T14:55:58.193Z,6.03
2019-02-25T15:01:02.608Z,4.98
2019-02-25T15:06:08.508Z,5.84
2019-02-25T15:11:13.221Z,5.56
2019-02-25T15:16:19.408Z,5.75
2019-02-25T15:21:24.139Z,5.87
2019-02-25T15:26:30.242Z,5.87
2019-02-25T15:31:35.260Z,5.83
2019-02-25T15:36:40.005Z,5.77
2019-02-25T15:41:46.090Z,5.26
2019-02-25T15:46:51.446Z,5.44
2019-02-25T15:51:56.279Z,5.49
2019-02-25T15:57:02.251Z,5.19
2019-02-25T16:02:07.747Z,5.20
2019-02-25T16:07:13.677Z,5.20
2019-02-25T16:12:23.333Z,4.90
2019-02-25T16:17:27.792Z,4.76
2019-02-25T16:22:34.078Z,4.56
2019-02-25T16:27:39.104Z,4.56
2019-02-25T16:32:46.203Z,4.54
2019-02-25T16:37:53.107Z,4.19
2019-02-25T16:42:59.833Z,3.57
2019-02-25T16:48:06.776Z,3.09
2019-02-25T16:53:13.409Z,3.51
2019-02-25T16:58:17.837Z,3.39
2019-02-25T17:03:22.649Z,2.96
2019-02-25T17:08:28.284Z,2.54
2019-02-25T17:13:34.881Z,3.65
2019-02-25T17:18:40.253Z,3.15
2019-02-25T17:23:45.222Z,3.16
2019-02-25T17:28:50.060Z,1.83
2019-02-25T17:33:55.759Z,2.05
2019-02-25T17:39:02.088Z,2.37
2019-02-25T17:44:08.963Z,1.76
2019-02-25T17:49:16.767Z,1.80
2019-02-25T17:54:23.970Z,1.11
2019-02-25T17:59:31.606Z,1.81
2019-02-25T18:04:36.561Z,1.47
2019-02-25T18:09:42.692Z,1.04
2019-02-25T18:14:47.779Z,2.12
2019-02-25T18:19:54.579Z,1.73
2019-02-25T18:25:04.201Z,2.51
2019-02-25T18:30:20.393Z,2.47
2019-02-25T18:35:25.484Z,1.94
2019-02-25T18:40:30.535Z,2.17
2019-02-25T18:45:38.012Z,2.55
2019-02-25T18:50:44.978Z,2.29
2019-02-25T18:55:50.111Z,2.41
2019-02-25T19:00:57.186Z,2.36
2019-02-25T19:06:03.877Z,1.71
2019-02-25T19:11:08.718Z,1.36
2019-02-25T19:16:15.414Z,1.93
2019-02-25T19:21:20.050Z,1.86
2019-02-25T19:26:24.790Z,1.60
2019-02-25T19:31:29.462Z,1.62
2019-02-25T19:36:36.679Z,1.56
2019-02-25T19:41:46.932Z,1.19
2019-02-25T19:46:51.292Z,0.95
2019-02-25T19:51:57.499Z,1.43
2019-02-25T19:57:02.181Z,1.52
2019-02-25T20:02:08.086Z,1.32
2019-02-25T20:07:13.321Z,0.87
2019-02-25T20:12:20.926Z,1.02
2019-02-25T20:17:26.560Z,0.46
2019-02-25T20:22:32.763Z,0.45
2019-02-25T20:27:37.805Z,0.83
2019-02-25T20:32:43.488Z,0.48
2019-02-25T20:37:52.991Z,0.49
2019-02-25T20:42:56.089Z,0.78
2019-02-25T20:48:01.919Z,0.83
2019-02-25T20:53:09.185Z,0.45
2019-02-25T20:58:13.982Z,-0.04
2019-02-25T21:03:21.363Z,-0.04
2019-02-25T21:08:25.746Z,-0.10
2019-02-25T21:13:31.314Z,0.34
2019-02-25T21:18:36.872Z,0.18
2019-02-25T21:23:41.612Z,-0.21
2019-02-25T21:28:46.461Z,-0.33
2019-02-25T21:33:52.297Z,-0.28
2019-02-25T21:38:57.679Z,-0.10
2019-02-25T21:44:02.531Z,0.01
2019-02-25T21:49:08.389Z,-0.44
2019-02-25T21:54:13.344Z,-0.01
2019-02-25T21:59:18.001Z,-1.25
2019-02-25T22:04:24.735Z,-0.47
2019-02-25T22:09:36.054Z,-0.74
2019-02-25T22:14:35.496Z,-1.18
2019-02-25T22:19:41.478Z,-0.68
2019-02-25T22:24:47.531Z,-0.66
2019-02-25T22:29:52.377Z,-0.84
2019-02-25T22:34:58.246Z,-1.11
2019-02-25T22:40:03.774Z,-0.93
2019-02-25T22:45:14.687Z,-1.60
2019-02-25T22:50:20.259Z,-1.01
2019-02-25T22:55:24.999Z,-1.52
2019-02-25T23:00:36.805Z,-1.33
2019-02-25T23:05:47.407Z,-1.69
2019-02-25T23:10:51.749Z,-1.17
2019-02-25T23:15:57.007Z,-0.82
2019-02-25T23:21:03.097Z,-1.25
2019-02-25T23:26:07.991Z,-0.96
2019-02-25T23:31:14.516Z,-0.92
2019-02-25T23:36:19.539Z,-0.62
2019-02-25T23:41:25.287Z,-0.72
2019-02-25T23:46:32.006Z,-0.84
2019-02-25T23:51:37.693Z,-1.46
2019-02-25T23:56:43.933Z,-1.95
